createdAt,value
2022-11-05T00:00:31.820Z,5.90
2022-11-05T00:01:32.070Z,6.10
2022-11-05T00:02:32.237Z,6.10
2022-11-05T00:03:32.659Z,7.10
2022-11-05T00:04:32.958Z,9.50
2022-11-05T00:05:33.202Z,10.80
2022-11-05T00:06:33.459Z,6.90
2022-11-05T00:07:33.780Z,7.10
2022-11-05T00:08:34.096Z,7.20
2022-11-05T00:09:34.393Z,6.90
2022-11-05T00:10:34.609Z,6.30
2022-11-05T00:11:34.999Z,5.80
2022-11-05T00:12:35.238Z,5.60
2022-11-05T00:13:35.519Z,5.70
2022-11-05T00:14:35.932Z,5.20
2022-11-05T00:15:36.113Z,5.60
2022-11-05T00:16:36.385Z,5.10
2022-11-05T00:17:36.713Z,5.40
2022-11-05T00:18:37.050Z,4.80
2022-11-05T00:19:37.369Z,5.10
2022-11-05T00:20:37.648Z,5.20
2022-11-05T00:21:38.005Z,5.60
2022-11-05T00:22:38.347Z,5.00
2022-11-05T00:23:38.637Z,5.60
2022-11-05T00:24:38.952Z,5.20
2022-11-05T00:25:39.281Z,5.70
2022-11-05T00:26:39.550Z,5.60
2022-11-05T00:27:39.823Z,5.70
2022-11-05T00:28:40.097Z,6.10
2022-11-05T00:29:40.391Z,6.30
2022-11-05T00:30:40.691Z,6.40
2022-11-05T00:31:41.061Z,6.80
2022-11-05T00:32:41.351Z,6.80
2022-11-05T00:33:41.602Z,6.30
2022-11-05T00:34:41.898Z,5.90
2022-11-05T00:35:42.225Z,5.00
2022-11-05T00:36:42.453Z,5.00
2022-11-05T00:37:48.755Z,4.30
2022-11-05T00:38:44.107Z,5.00
2022-11-05T00:39:43.451Z,4.40
2022-11-05T00:40:43.796Z,4.40
2022-11-05T00:41:44.054Z,4.20
2022-11-05T00:42:44.432Z,4.00
2022-11-05T00:43:44.707Z,3.90
2022-11-05T00:44:44.976Z,3.70
2022-11-05T00:45:45.276Z,3.90
2022-11-05T00:46:45.493Z,3.80
2022-11-05T00:47:45.820Z,3.70
2022-11-05T00:48:46.139Z,4.00
2022-11-05T00:49:46.325Z,4.30
2022-11-05T00:50:46.650Z,4.20
2022-11-05T00:51:47.009Z,4.60
2022-11-05T00:52:47.244Z,4.70
2022-11-05T00:53:47.524Z,6.20
2022-11-05T00:54:47.760Z,6.80
2022-11-05T00:55:48.041Z,5.00
2022-11-05T00:56:48.393Z,4.20
2022-11-05T00:57:48.667Z,3.90
2022-11-05T00:58:49.011Z,3.60
2022-11-05T00:59:49.267Z,3.60
2022-11-05T01:00:49.638Z,3.90
2022-11-05T01:01:50.995Z,3.60
2022-11-05T01:02:50.479Z,3.70
2022-11-05T01:03:51.666Z,3.60
2022-11-05T01:04:50.864Z,4.00
2022-11-05T01:05:51.239Z,3.90
2022-11-05T01:06:51.387Z,3.90
2022-11-05T01:07:51.681Z,3.90
2022-11-05T01:08:52.051Z,4.20
2022-11-05T01:09:52.373Z,4.20
2022-11-05T01:10:52.706Z,3.90
2022-11-05T01:11:53.029Z,4.20
2022-11-05T01:12:53.275Z,4.40
2022-11-05T01:13:53.632Z,3.90
2022-11-05T01:14:53.905Z,4.20
2022-11-05T01:15:54.180Z,4.10
2022-11-05T01:16:54.458Z,4.10
2022-11-05T01:17:54.706Z,4.00
2022-11-05T01:18:54.990Z,4.10
2022-11-05T01:19:56.157Z,3.80
2022-11-05T01:20:55.615Z,4.00
2022-11-05T01:21:55.932Z,3.90
2022-11-05T01:22:56.295Z,3.60
2022-11-05T01:23:56.595Z,3.80
2022-11-05T01:24:56.874Z,3.70
2022-11-05T01:25:57.208Z,3.90
2022-11-05T01:26:57.525Z,4.50
2022-11-05T01:27:57.651Z,4.40
2022-11-05T01:28:58.078Z,4.40
2022-11-05T01:29:58.324Z,4.60
2022-11-05T01:30:58.585Z,4.70
2022-11-05T01:31:58.803Z,4.30
2022-11-05T01:32:59.101Z,4.80
2022-11-05T01:34:00.241Z,4.60
2022-11-05T01:34:59.627Z,4.50
2022-11-05T01:35:59.912Z,4.80
2022-11-05T01:37:00.249Z,4.70
2022-11-05T01:38:00.529Z,5.00
2022-11-05T01:39:00.740Z,5.00
2022-11-05T01:40:01.084Z,4.90
2022-11-05T01:41:01.392Z,5.40
2022-11-05T01:42:01.688Z,5.30
2022-11-05T01:43:01.983Z,5.00
2022-11-05T01:44:02.274Z,5.60
2022-11-05T01:45:02.986Z,5.60
2022-11-05T01:46:02.838Z,5.90
2022-11-05T01:47:03.190Z,6.10
2022-11-05T01:48:03.557Z,6.10
2022-11-05T01:49:03.820Z,6.40
2022-11-05T01:50:04.046Z,6.70
2022-11-05T01:51:04.375Z,6.90
2022-11-05T01:52:04.624Z,6.80
2022-11-05T01:53:04.921Z,6.90
2022-11-05T01:54:05.141Z,6.50
2022-11-05T01:55:05.476Z,7.00
2022-11-05T01:56:05.838Z,6.50
2022-11-05T01:57:06.048Z,7.40
2022-11-05T01:58:06.365Z,7.60
2022-11-05T01:59:06.748Z,7.30
2022-11-05T02:00:06.962Z,7.80
2022-11-05T02:01:07.265Z,7.60
2022-11-05T02:02:07.598Z,7.60
2022-11-05T02:03:07.991Z,7.40
2022-11-05T02:04:08.066Z,7.50
2022-11-05T02:05:08.355Z,7.20
2022-11-05T02:06:08.701Z,6.20
2022-11-05T02:07:08.975Z,5.90
2022-11-05T02:08:09.318Z,6.10
2022-11-05T02:09:09.568Z,6.20
2022-11-05T02:10:09.788Z,6.30
2022-11-05T02:11:10.202Z,6.00
2022-11-05T02:12:10.364Z,6.90
2022-11-05T02:13:10.904Z,6.60
2022-11-05T02:14:11.034Z,7.00
2022-11-05T02:15:11.243Z,7.60
2022-11-05T02:16:11.590Z,6.70
2022-11-05T02:17:11.788Z,7.50
2022-11-05T02:18:12.102Z,7.30
2022-11-05T02:19:12.363Z,7.50
2022-11-05T02:20:12.652Z,7.40
2022-11-05T02:21:12.939Z,7.50
2022-11-05T02:22:13.197Z,7.50
2022-11-05T02:23:14.459Z,7.40
2022-11-05T02:24:13.855Z,7.30
2022-11-05T02:25:14.116Z,7.60
2022-11-05T02:26:14.354Z,7.80
2022-11-05T02:27:14.735Z,7.60
2022-11-05T02:28:14.979Z,7.20
2022-11-05T02:29:15.194Z,7.50
2022-11-05T02:30:15.458Z,8.10
2022-11-05T02:31:15.955Z,8.10
2022-11-05T02:32:16.168Z,7.90
2022-11-05T02:33:16.492Z,7.80
2022-11-05T02:34:16.781Z,8.10
2022-11-05T02:35:17.101Z,8.20
2022-11-05T02:36:17.378Z,8.30
2022-11-05T02:37:17.727Z,8.80
2022-11-05T02:38:17.989Z,8.40
2022-11-05T02:39:18.306Z,8.70
2022-11-05T02:40:18.718Z,8.70
2022-11-05T02:41:18.885Z,8.60
2022-11-05T02:42:19.215Z,7.60
2022-11-05T02:43:19.554Z,7.60
2022-11-05T02:44:19.785Z,8.00
2022-11-05T02:45:20.056Z,8.00
2022-11-05T02:46:20.387Z,7.70
2022-11-05T02:47:20.743Z,7.70
2022-11-05T02:48:20.898Z,8.30
2022-11-05T02:49:21.223Z,8.50
2022-11-05T02:50:21.526Z,8.30
2022-11-05T02:51:21.821Z,8.70
2022-11-05T02:52:22.148Z,8.80
2022-11-05T02:53:22.495Z,8.70
2022-11-05T02:54:22.798Z,8.50
2022-11-05T02:55:23.090Z,9.00
2022-11-05T02:56:23.402Z,9.00
2022-11-05T02:57:23.713Z,9.20
2022-11-05T02:58:23.981Z,9.30
2022-11-05T02:59:24.303Z,9.60
2022-11-05T03:00:24.657Z,9.90
2022-11-05T03:01:25.096Z,9.70
2022-11-05T03:02:25.388Z,10.20
2022-11-05T03:03:25.519Z,9.90
2022-11-05T03:04:25.837Z,10.20
2022-11-05T03:05:26.224Z,10.70
2022-11-05T03:06:26.433Z,10.90
2022-11-05T03:07:26.760Z,11.00
2022-11-05T03:08:27.112Z,11.20
2022-11-05T03:09:27.355Z,11.20
2022-11-05T03:10:27.550Z,11.30
2022-11-05T03:11:27.754Z,11.60
2022-11-05T03:12:28.092Z,12.00
2022-11-05T03:13:28.421Z,11.50
2022-11-05T03:14:28.797Z,12.00
2022-11-05T03:15:29.096Z,12.50
2022-11-05T03:16:29.438Z,12.00
2022-11-05T03:17:29.708Z,11.40
2022-11-05T03:18:30.019Z,11.80
2022-11-05T03:19:30.382Z,12.00
2022-11-05T03:20:30.697Z,12.20
2022-11-05T03:21:31.057Z,12.20
2022-11-05T03:22:31.352Z,12.00
2022-11-05T03:23:31.725Z,12.20
2022-11-05T03:24:31.979Z,12.00
2022-11-05T03:25:32.328Z,12.70
2022-11-05T03:26:32.659Z,12.00
2022-11-05T03:27:32.884Z,12.10
2022-11-05T03:28:33.642Z,11.90
2022-11-05T03:29:33.522Z,12.00
2022-11-05T03:30:33.825Z,11.80
2022-11-05T03:31:34.153Z,12.10
2022-11-05T03:32:34.481Z,12.30
2022-11-05T03:33:34.826Z,12.30
2022-11-05T03:34:35.098Z,12.30
2022-11-05T03:35:35.526Z,12.40
2022-11-05T03:36:35.728Z,12.70
2022-11-05T03:37:36.027Z,12.80
2022-11-05T03:38:36.333Z,12.40
2022-11-05T03:39:36.634Z,12.50
2022-11-05T03:40:36.969Z,12.50
2022-11-05T03:41:37.268Z,13.20
2022-11-05T03:42:37.606Z,12.60
2022-11-05T03:43:37.907Z,13.00
2022-11-05T03:44:38.259Z,11.70
2022-11-05T03:45:38.559Z,11.50
2022-11-05T03:46:38.854Z,10.70
2022-11-05T03:47:39.248Z,10.70
2022-11-05T03:48:39.592Z,10.60
2022-11-05T03:49:39.852Z,10.30
2022-11-05T03:50:41.486Z,9.70
2022-11-05T03:51:40.348Z,9.60
2022-11-05T03:52:40.623Z,9.60
2022-11-05T03:53:40.973Z,9.80
2022-11-05T03:54:41.263Z,8.90
2022-11-05T03:55:41.595Z,9.20
2022-11-05T03:56:41.879Z,9.10
2022-11-05T03:57:42.203Z,9.30
2022-11-05T03:58:42.420Z,9.40
2022-11-05T03:59:42.673Z,9.60
2022-11-05T04:00:43.129Z,10.00
2022-11-05T04:01:43.446Z,9.90
2022-11-05T04:02:43.790Z,9.50
2022-11-05T04:03:43.881Z,10.40
2022-11-05T04:04:44.205Z,8.70
2022-11-05T04:05:44.575Z,9.20
2022-11-05T04:06:44.871Z,7.70
2022-11-05T04:07:45.235Z,7.20
2022-11-05T04:08:45.517Z,7.20
2022-11-05T04:09:45.835Z,7.30
2022-11-05T04:10:46.096Z,6.60
2022-11-05T04:11:46.428Z,5.90
2022-11-05T04:12:46.783Z,6.40
2022-11-05T04:13:47.126Z,6.30
2022-11-05T04:14:47.415Z,5.60
2022-11-05T04:15:47.739Z,5.30
2022-11-05T04:16:48.059Z,5.40
2022-11-05T04:17:48.427Z,5.20
2022-11-05T04:18:48.612Z,5.10
2022-11-05T04:19:48.909Z,5.30
2022-11-05T04:20:49.231Z,5.30
2022-11-05T04:21:49.561Z,5.60
2022-11-05T04:22:50.246Z,4.90
2022-11-05T04:23:50.179Z,5.20
2022-11-05T04:24:50.397Z,5.40
2022-11-05T04:25:51.614Z,5.30
2022-11-05T04:26:51.002Z,4.80
2022-11-05T04:27:51.308Z,5.00
2022-11-05T04:28:51.633Z,4.70
2022-11-05T04:29:51.948Z,5.00
2022-11-05T04:30:52.265Z,4.90
2022-11-05T04:31:52.566Z,4.50
2022-11-05T04:32:52.888Z,4.70
2022-11-05T04:33:53.066Z,5.00
2022-11-05T04:34:53.327Z,5.30
2022-11-05T04:35:54.070Z,5.50
2022-11-05T04:36:53.907Z,5.30
2022-11-05T04:37:54.186Z,5.60
2022-11-05T04:38:54.513Z,5.50
2022-11-05T04:39:54.680Z,5.50
2022-11-05T04:40:55.049Z,5.30
2022-11-05T04:41:55.380Z,5.80
2022-11-05T04:42:55.649Z,5.90
2022-11-05T04:43:55.952Z,5.70
2022-11-05T04:44:56.271Z,5.80
2022-11-05T04:45:56.965Z,6.00
2022-11-05T04:46:56.891Z,6.00
2022-11-05T04:47:57.073Z,6.00
2022-11-05T04:48:58.248Z,6.40
2022-11-05T04:49:57.554Z,6.20
2022-11-05T04:50:57.850Z,6.10
2022-11-05T04:51:58.206Z,6.00
2022-11-05T04:52:58.374Z,5.80
2022-11-05T04:53:58.672Z,5.40
2022-11-05T04:54:58.953Z,5.90
2022-11-05T04:55:59.240Z,6.20
2022-11-05T04:56:59.538Z,5.70
2022-11-05T04:57:59.828Z,6.00
2022-11-05T04:59:00.035Z,6.50
2022-11-05T05:00:00.355Z,6.60
2022-11-05T05:01:00.727Z,6.70
2022-11-05T05:02:01.131Z,6.60
2022-11-05T05:03:01.350Z,6.40
2022-11-05T05:04:01.604Z,5.80
2022-11-05T05:05:01.973Z,5.90
2022-11-05T05:06:03.968Z,5.10
2022-11-05T05:07:02.545Z,5.40
2022-11-05T05:08:02.861Z,4.80
2022-11-05T05:09:03.270Z,4.80
2022-11-05T05:10:03.432Z,4.70
2022-11-05T05:11:03.756Z,5.00
2022-11-05T05:12:04.044Z,4.90
2022-11-05T05:13:04.346Z,5.30
2022-11-05T05:14:04.645Z,5.60
2022-11-05T05:15:04.930Z,5.70
2022-11-05T05:16:05.176Z,5.50
2022-11-05T05:17:05.498Z,5.50
2022-11-05T05:18:05.826Z,6.00
2022-11-05T05:19:06.146Z,5.80
2022-11-05T05:20:06.480Z,5.70
2022-11-05T05:21:06.730Z,5.50
2022-11-05T05:22:06.910Z,5.50
2022-11-05T05:23:07.253Z,5.80
2022-11-05T05:24:07.497Z,5.50
2022-11-05T05:25:07.724Z,5.70
2022-11-05T05:26:08.064Z,5.30
2022-11-05T05:27:08.381Z,5.40
2022-11-05T05:28:08.738Z,5.20
2022-11-05T05:29:08.988Z,4.90
2022-11-05T05:30:09.189Z,4.90
2022-11-05T05:31:09.462Z,4.80
2022-11-05T05:32:09.724Z,4.90
2022-11-05T05:33:10.483Z,5.10
2022-11-05T05:34:10.265Z,5.20
2022-11-05T05:35:10.563Z,5.10
2022-11-05T05:36:11.609Z,4.90
2022-11-05T05:37:11.308Z,4.70
2022-11-05T05:38:11.533Z,4.90
2022-11-05T05:39:11.630Z,4.50
2022-11-05T05:40:11.949Z,4.90
2022-11-05T05:41:12.269Z,4.60
2022-11-05T05:42:12.617Z,4.30
2022-11-05T05:43:13.312Z,4.20
2022-11-05T05:44:13.133Z,4.20
2022-11-05T05:45:13.408Z,4.10
2022-11-05T05:46:13.738Z,4.00
2022-11-05T05:47:14.064Z,4.00
2022-11-05T05:48:14.306Z,4.30
2022-11-05T05:49:14.538Z,4.40
2022-11-05T05:50:14.773Z,4.60
2022-11-05T05:51:15.041Z,4.90
2022-11-05T05:52:15.378Z,5.00
2022-11-05T05:53:15.686Z,5.30
2022-11-05T05:54:16.043Z,5.40
2022-11-05T05:55:16.309Z,5.40
2022-11-05T05:56:16.583Z,5.10
2022-11-05T05:57:16.979Z,4.90
2022-11-05T05:58:17.081Z,4.90
2022-11-05T05:59:17.535Z,4.60
2022-11-05T06:00:17.720Z,4.60
2022-11-05T06:01:19.587Z,4.80
2022-11-05T06:02:18.371Z,4.70
2022-11-05T06:03:18.512Z,5.10
2022-11-05T06:04:18.811Z,5.30
2022-11-05T06:05:19.224Z,5.10
2022-11-05T06:06:19.575Z,5.60
2022-11-05T06:07:19.878Z,5.10
2022-11-05T06:08:20.120Z,5.50
2022-11-05T06:09:20.342Z,5.50
2022-11-05T06:10:20.735Z,5.70
2022-11-05T06:11:20.963Z,5.80
2022-11-05T06:12:21.246Z,6.30
2022-11-05T06:13:21.497Z,6.30
2022-11-05T06:14:21.733Z,6.60
2022-11-05T06:15:21.958Z,6.50
2022-11-05T06:16:22.185Z,6.40
2022-11-05T06:17:22.512Z,6.80
2022-11-05T06:18:22.881Z,6.30
2022-11-05T06:19:23.126Z,6.10
2022-11-05T06:20:23.369Z,5.90
2022-11-05T06:21:23.596Z,5.50
2022-11-05T06:22:23.972Z,5.50
2022-11-05T06:23:24.214Z,5.30
2022-11-05T06:24:24.565Z,4.90
2022-11-05T06:25:24.833Z,5.10
2022-11-05T06:26:25.074Z,5.00
2022-11-05T06:27:25.317Z,5.30
2022-11-05T06:28:25.586Z,5.20
2022-11-05T06:29:25.800Z,5.30
2022-11-05T06:30:26.077Z,5.20
2022-11-05T06:31:26.291Z,5.50
2022-11-05T06:32:26.642Z,5.40
2022-11-05T06:33:26.902Z,5.60
2022-11-05T06:34:27.191Z,5.60
2022-11-05T06:35:27.399Z,5.40
2022-11-05T06:36:27.783Z,5.90
2022-11-05T06:37:28.054Z,6.40
2022-11-05T06:38:28.279Z,6.30
2022-11-05T06:39:28.648Z,6.20
2022-11-05T06:40:28.879Z,6.30
2022-11-05T06:41:29.107Z,6.30
2022-11-05T06:42:29.392Z,6.20
2022-11-05T06:43:29.670Z,6.90
2022-11-05T06:44:29.875Z,6.80
2022-11-05T06:45:30.124Z,7.10
2022-11-05T06:46:30.371Z,7.70
2022-11-05T06:47:30.605Z,7.70
2022-11-05T06:48:30.881Z,7.80
2022-11-05T06:49:31.213Z,14.10
2022-11-05T06:50:31.473Z,8.00
2022-11-05T06:51:31.748Z,8.10
2022-11-05T06:52:34.801Z,8.30
2022-11-05T06:53:33.245Z,8.50
2022-11-05T06:54:32.481Z,8.20
2022-11-05T06:55:32.871Z,8.10
2022-11-05T06:56:33.210Z,8.00
2022-11-05T06:57:33.396Z,8.50
2022-11-05T06:58:33.654Z,9.10
2022-11-05T06:59:33.896Z,8.30
2022-11-05T07:00:34.256Z,8.40
2022-11-05T07:01:34.450Z,8.00
2022-11-05T07:02:34.681Z,8.40
2022-11-05T07:03:34.991Z,8.30
2022-11-05T07:04:35.290Z,8.50
2022-11-05T07:05:35.487Z,8.50
2022-11-05T07:06:37.165Z,17.30
2022-11-05T07:07:36.028Z,9.00
2022-11-05T07:08:36.686Z,8.50
2022-11-05T07:09:36.484Z,8.30
2022-11-05T07:10:36.713Z,8.90
2022-11-05T07:11:37.009Z,8.70
2022-11-05T07:12:37.334Z,8.90
2022-11-05T07:13:37.526Z,8.80
2022-11-05T07:14:37.832Z,9.60
2022-11-05T07:15:38.893Z,9.90
2022-11-05T07:16:38.316Z,9.50
2022-11-05T07:17:38.536Z,9.80
2022-11-05T07:18:38.852Z,10.10
2022-11-05T07:19:39.075Z,10.40
2022-11-05T07:20:39.405Z,10.60
2022-11-05T07:21:39.627Z,10.80
2022-11-05T07:22:39.947Z,10.90
2022-11-05T07:23:40.172Z,11.30
2022-11-05T07:24:40.465Z,10.90
2022-11-05T07:25:40.721Z,10.30
2022-11-05T07:26:40.958Z,10.00
2022-11-05T07:27:41.327Z,9.50
2022-11-05T07:28:41.592Z,9.20
2022-11-05T07:29:41.791Z,9.80
2022-11-05T07:30:42.049Z,10.60
2022-11-05T07:31:42.368Z,10.20
2022-11-05T07:32:42.612Z,10.40
2022-11-05T07:33:42.911Z,9.80
2022-11-05T07:34:43.919Z,10.70
2022-11-05T07:35:43.471Z,10.50
2022-11-05T07:36:43.714Z,10.60
2022-11-05T07:37:44.048Z,10.20
2022-11-05T07:38:44.288Z,10.10
2022-11-05T07:39:44.534Z,10.70
2022-11-05T07:40:44.817Z,11.10
2022-11-05T07:41:45.074Z,11.20
2022-11-05T07:42:45.386Z,11.10
2022-11-05T07:43:45.585Z,10.90
2022-11-05T07:44:45.875Z,11.10
2022-11-05T07:45:46.132Z,11.20
2022-11-05T07:46:46.843Z,11.40
2022-11-05T07:47:46.669Z,11.50
2022-11-05T07:48:46.979Z,11.00
2022-11-05T07:49:47.220Z,11.50
2022-11-05T07:50:47.525Z,11.60
2022-11-05T07:51:47.788Z,11.40
2022-11-05T07:52:48.090Z,11.00
2022-11-05T07:53:48.322Z,11.50
2022-11-05T07:54:48.608Z,11.10
2022-11-05T07:55:48.875Z,10.60
2022-11-05T07:56:49.168Z,10.70
2022-11-05T07:57:49.431Z,10.40
2022-11-05T07:58:49.701Z,9.90
2022-11-05T07:59:49.947Z,9.70
2022-11-05T08:00:50.375Z,10.20
2022-11-05T08:01:50.721Z,9.90
2022-11-05T08:02:51.019Z,10.20
2022-11-05T08:03:50.973Z,9.60
2022-11-05T08:04:51.228Z,9.70
2022-11-05T08:05:51.510Z,9.60
2022-11-05T08:06:51.723Z,9.90
2022-11-05T08:07:52.065Z,10.20
2022-11-05T08:08:52.320Z,10.10
2022-11-05T08:09:52.624Z,10.20
2022-11-05T08:10:52.939Z,9.90
2022-11-05T08:11:54.683Z,9.80
2022-11-05T08:12:53.457Z,9.90
2022-11-05T08:13:53.703Z,9.20
2022-11-05T08:14:53.961Z,8.90
2022-11-05T08:15:54.268Z,9.40
2022-11-05T08:16:54.461Z,8.80
2022-11-05T08:17:54.837Z,9.00
2022-11-05T08:18:55.977Z,8.50
2022-11-05T08:19:55.388Z,9.20
2022-11-05T08:20:55.629Z,9.00
2022-11-05T08:21:55.897Z,8.80
2022-11-05T08:22:56.246Z,8.80
2022-11-05T08:23:56.582Z,8.70
2022-11-05T08:24:56.740Z,8.80
2022-11-05T08:25:57.136Z,8.50
2022-11-05T08:26:57.453Z,8.60
2022-11-05T08:27:57.646Z,8.40
2022-11-05T08:28:57.950Z,9.00
2022-11-05T08:29:58.167Z,8.80
2022-11-05T08:30:58.569Z,8.70
2022-11-05T08:31:58.774Z,8.80
2022-11-05T08:32:59.039Z,8.50
2022-11-05T08:34:02.455Z,8.70
2022-11-05T08:34:59.557Z,9.20
2022-11-05T08:35:59.786Z,8.90
2022-11-05T08:37:00.075Z,8.80
2022-11-05T08:38:00.354Z,9.30
2022-11-05T08:39:00.594Z,9.30
2022-11-05T08:40:00.820Z,9.20
2022-11-05T08:41:01.061Z,8.90
2022-11-05T08:42:01.297Z,8.70
2022-11-05T08:43:01.632Z,9.00
2022-11-05T08:44:01.846Z,8.80
2022-11-05T08:45:02.114Z,8.50
2022-11-05T08:46:02.357Z,9.00
2022-11-05T08:47:02.634Z,8.60
2022-11-05T08:48:02.905Z,8.80
2022-11-05T08:49:03.191Z,9.00
2022-11-05T08:50:03.413Z,8.80
2022-11-05T08:51:03.718Z,9.10
2022-11-05T08:52:03.978Z,9.90
2022-11-05T08:53:04.258Z,9.40
2022-11-05T08:54:04.480Z,9.10
2022-11-05T08:55:04.749Z,9.00
2022-11-05T08:56:05.018Z,9.30
2022-11-05T08:57:05.247Z,9.10
2022-11-05T08:58:05.488Z,9.10
2022-11-05T08:59:05.738Z,9.60
2022-11-05T09:00:06.008Z,9.40
2022-11-05T09:01:06.435Z,9.30
2022-11-05T09:02:06.644Z,9.60
2022-11-05T09:03:07.795Z,9.80
2022-11-05T09:04:07.145Z,9.40
2022-11-05T09:05:07.255Z,9.10
2022-11-05T09:06:07.606Z,8.70
2022-11-05T09:07:07.961Z,8.80
2022-11-05T09:08:08.089Z,9.00
2022-11-05T09:09:08.367Z,8.50
2022-11-05T09:10:09.530Z,9.10
2022-11-05T09:11:08.903Z,8.50
2022-11-05T09:12:13.209Z,8.40
2022-11-05T09:13:14.683Z,8.60
2022-11-05T09:14:10.809Z,8.30
2022-11-05T09:15:10.001Z,8.60
2022-11-05T09:16:10.253Z,8.80
2022-11-05T09:17:10.511Z,8.10
2022-11-05T09:18:10.730Z,8.80
2022-11-05T09:19:11.029Z,9.00
2022-11-05T09:20:11.232Z,8.00
2022-11-05T09:21:11.482Z,8.40
2022-11-05T09:22:11.728Z,8.60
2022-11-05T09:23:12.369Z,8.40
2022-11-05T09:24:12.320Z,8.60
2022-11-05T09:25:12.576Z,8.30
2022-11-05T09:26:12.840Z,8.30
2022-11-05T09:27:13.076Z,7.90
2022-11-05T09:28:16.484Z,8.30
2022-11-05T09:29:14.623Z,8.60
2022-11-05T09:30:14.092Z,8.60
2022-11-05T09:31:14.217Z,8.70
2022-11-05T09:32:14.515Z,8.60
2022-11-05T09:33:14.787Z,8.20
2022-11-05T09:34:15.020Z,8.30
2022-11-05T09:35:15.265Z,8.30
2022-11-05T09:36:15.572Z,8.50
2022-11-05T09:37:15.768Z,8.60
2022-11-05T09:38:16.086Z,8.70
2022-11-05T09:39:16.325Z,8.60
2022-11-05T09:40:16.554Z,8.80
2022-11-05T09:41:16.801Z,8.70
2022-11-05T09:42:17.075Z,8.70
2022-11-05T09:43:17.343Z,8.50
2022-11-05T09:44:17.605Z,8.20
2022-11-05T09:45:17.874Z,8.40
2022-11-05T09:46:18.138Z,8.20
2022-11-05T09:47:18.383Z,9.40
2022-11-05T09:48:18.645Z,9.30
2022-11-05T09:49:18.931Z,9.00
2022-11-05T09:50:19.208Z,9.60
2022-11-05T09:51:23.949Z,8.40
2022-11-05T09:52:19.708Z,9.60
2022-11-05T09:53:19.968Z,8.80
2022-11-05T09:54:20.212Z,8.10
2022-11-05T09:55:20.641Z,8.40
2022-11-05T09:56:20.777Z,8.20
2022-11-05T09:57:21.017Z,8.80
2022-11-05T09:58:25.929Z,8.70
2022-11-05T09:59:22.504Z,8.30
2022-11-05T10:00:21.764Z,8.20
2022-11-05T10:01:22.110Z,8.00
2022-11-05T10:02:22.384Z,8.40
2022-11-05T10:03:22.606Z,8.50
2022-11-05T10:04:22.833Z,8.70
2022-11-05T10:05:23.124Z,9.00
2022-11-05T10:06:23.430Z,8.10
2022-11-05T10:07:23.656Z,7.90
2022-11-05T10:08:24.795Z,8.30
2022-11-05T10:09:24.171Z,8.20
2022-11-05T10:10:24.489Z,8.20
2022-11-05T10:11:24.717Z,7.80
2022-11-05T10:12:24.969Z,7.50
2022-11-05T10:13:25.238Z,8.00
2022-11-05T10:14:25.487Z,8.80
2022-11-05T10:15:25.731Z,8.60
2022-11-05T10:16:25.990Z,8.90
2022-11-05T10:17:26.238Z,8.60
2022-11-05T10:18:26.535Z,8.40
2022-11-05T10:19:26.770Z,8.80
2022-11-05T10:20:27.084Z,10.80
2022-11-05T10:21:51.379Z,9.30
2022-11-05T10:22:28.589Z,8.80
2022-11-05T10:23:27.852Z,9.00
2022-11-05T10:24:28.134Z,8.80
2022-11-05T10:25:28.357Z,9.00
2022-11-05T10:26:28.650Z,8.50
2022-11-05T10:27:28.871Z,9.00
2022-11-05T10:28:29.127Z,8.90
2022-11-05T10:29:29.476Z,9.40
2022-11-05T10:30:29.760Z,9.70
2022-11-05T10:31:35.177Z,9.40
2022-11-05T10:32:31.239Z,9.90
2022-11-05T10:33:30.546Z,9.70
2022-11-05T10:34:30.773Z,10.50
2022-11-05T10:35:31.079Z,10.40
2022-11-05T10:36:31.495Z,10.30
2022-11-05T10:37:31.573Z,10.10
2022-11-05T10:38:31.837Z,10.20
2022-11-05T10:39:32.104Z,10.10
2022-11-05T10:40:32.389Z,10.20
2022-11-05T10:41:32.630Z,9.80
2022-11-05T10:42:32.967Z,10.40
2022-11-05T10:43:33.238Z,10.20
2022-11-05T10:44:33.549Z,9.90
2022-11-05T10:45:33.900Z,10.70
2022-11-05T10:46:34.140Z,10.40
2022-11-05T10:47:34.393Z,12.40
2022-11-05T10:48:37.029Z,10.00
2022-11-05T10:49:35.953Z,9.40
2022-11-05T10:50:35.295Z,9.30
2022-11-05T10:51:35.587Z,9.00
2022-11-05T10:52:35.815Z,9.40
2022-11-05T10:53:36.105Z,9.00
2022-11-05T10:54:36.416Z,10.20
2022-11-05T10:55:36.649Z,10.20
2022-11-05T10:56:36.933Z,10.70
2022-11-05T10:57:37.252Z,10.80
2022-11-05T10:58:37.507Z,10.40
2022-11-05T10:59:37.777Z,11.00
2022-11-05T11:00:38.147Z,9.80
2022-11-05T11:01:38.546Z,14.00
2022-11-05T11:02:38.760Z,10.10
2022-11-05T11:03:39.080Z,11.70
2022-11-05T11:04:39.334Z,10.20
2022-11-05T11:05:39.592Z,10.70
2022-11-05T11:06:39.871Z,10.30
2022-11-05T11:07:40.161Z,10.30
2022-11-05T11:08:40.484Z,10.70
2022-11-05T11:09:40.704Z,10.30
2022-11-05T11:10:40.996Z,10.50
2022-11-05T11:11:41.260Z,11.80
2022-11-05T11:12:41.557Z,10.60
2022-11-05T11:13:41.849Z,11.10
2022-11-05T11:14:42.152Z,10.30
2022-11-05T11:15:42.420Z,12.30
2022-11-05T11:16:42.738Z,16.80
2022-11-05T11:17:42.976Z,23.20
2022-11-05T11:18:43.376Z,16.70
2022-11-05T11:19:43.615Z,14.20
2022-11-05T11:20:43.927Z,13.10
2022-11-05T11:21:44.215Z,15.30
2022-11-05T11:22:44.501Z,12.30
2022-11-05T11:23:44.770Z,10.50
2022-11-05T11:24:45.036Z,10.50
2022-11-05T11:25:45.301Z,11.20
2022-11-05T11:26:45.561Z,11.00
2022-11-05T11:27:45.837Z,11.10
2022-11-05T11:28:46.165Z,11.70
2022-11-05T11:29:49.417Z,12.30
2022-11-05T11:30:46.683Z,11.90
2022-11-05T11:31:46.968Z,11.30
2022-11-05T11:32:47.320Z,11.60
2022-11-05T11:33:47.593Z,11.20
2022-11-05T11:34:47.806Z,11.20
2022-11-05T11:35:48.093Z,11.10
2022-11-05T11:36:48.385Z,11.00
2022-11-05T11:37:48.694Z,11.20
2022-11-05T11:38:48.957Z,11.30
2022-11-05T11:39:49.265Z,12.70
2022-11-05T11:40:49.529Z,11.90
2022-11-05T11:41:49.826Z,11.50
2022-11-05T11:42:50.279Z,11.40
2022-11-05T11:43:50.379Z,11.90
2022-11-05T11:44:50.625Z,11.80
2022-11-05T11:45:50.885Z,12.00
2022-11-05T11:46:51.176Z,12.30
2022-11-05T11:47:51.504Z,12.90
2022-11-05T11:48:51.797Z,11.90
2022-11-05T11:49:52.044Z,11.90
2022-11-05T11:50:52.353Z,11.60
2022-11-05T11:51:52.606Z,11.10
2022-11-05T11:52:52.896Z,10.70
2022-11-05T11:53:53.191Z,10.70
2022-11-05T11:54:53.460Z,10.00
2022-11-05T11:55:53.747Z,10.20
2022-11-05T11:56:54.105Z,9.30
2022-11-05T11:57:54.355Z,9.00
2022-11-05T11:58:54.600Z,8.40
2022-11-05T12:00:08.418Z,8.20
2022-11-05T12:00:56.077Z,8.50
2022-11-05T12:01:55.472Z,8.30
2022-11-05T12:03:01.322Z,8.40
2022-11-05T12:03:56.840Z,8.70
2022-11-05T12:04:56.166Z,8.20
2022-11-05T12:05:56.380Z,7.60
2022-11-05T12:06:56.650Z,8.10
2022-11-05T12:07:56.881Z,7.80
2022-11-05T12:09:03.659Z,7.90
2022-11-05T12:09:58.422Z,7.20
2022-11-05T12:10:57.734Z,6.90
2022-11-05T12:11:58.005Z,6.90
2022-11-05T12:12:58.300Z,7.30
2022-11-05T12:13:58.557Z,6.50
2022-11-05T12:14:58.815Z,6.10
2022-11-05T12:15:59.050Z,5.90
2022-11-05T12:16:59.333Z,6.70
2022-11-05T12:17:59.612Z,6.50
2022-11-05T12:18:59.857Z,6.40
2022-11-05T12:20:00.194Z,6.30
2022-11-05T12:21:00.379Z,5.30
2022-11-05T12:22:00.595Z,5.20
2022-11-05T12:23:00.987Z,4.90
2022-11-05T12:24:01.206Z,5.70
2022-11-05T12:25:01.489Z,5.10
2022-11-05T12:26:01.766Z,5.30
2022-11-05T12:27:02.039Z,5.60
2022-11-05T12:28:02.561Z,5.10
2022-11-05T12:29:18.534Z,5.30
2022-11-05T12:30:03.975Z,5.00
2022-11-05T12:31:03.197Z,4.50
2022-11-05T12:32:03.474Z,4.60
2022-11-05T12:33:03.824Z,4.40
2022-11-05T12:34:03.961Z,4.70
2022-11-05T12:35:04.272Z,4.70
2022-11-05T12:36:04.525Z,4.00
2022-11-05T12:37:04.826Z,4.60
2022-11-05T12:38:05.067Z,4.40
2022-11-05T12:39:05.308Z,4.30
2022-11-05T12:40:05.592Z,4.70
2022-11-05T12:41:05.836Z,4.00
2022-11-05T12:42:06.117Z,3.80
2022-11-05T12:43:10.616Z,3.70
2022-11-05T12:44:07.681Z,4.20
2022-11-05T12:45:06.870Z,4.20
2022-11-05T12:46:07.109Z,4.40
2022-11-05T12:47:07.454Z,4.40
2022-11-05T12:48:07.706Z,4.50
2022-11-05T12:49:14.892Z,4.50
2022-11-05T12:50:08.338Z,4.90
2022-11-05T12:51:08.600Z,4.00
2022-11-05T12:52:08.886Z,3.80
2022-11-05T12:53:09.341Z,4.70
2022-11-05T12:54:09.440Z,4.30
2022-11-05T12:55:09.687Z,4.50
2022-11-05T12:56:09.922Z,4.30
2022-11-05T12:57:10.168Z,3.00
2022-11-05T12:58:10.452Z,2.90
2022-11-05T12:59:10.672Z,2.70
2022-11-05T13:00:11.033Z,3.10
2022-11-05T13:01:11.313Z,4.30
2022-11-05T13:02:11.651Z,7.60
2022-11-05T13:03:12.007Z,8.00
2022-11-05T13:04:12.039Z,8.60
2022-11-05T13:05:12.318Z,5.10
2022-11-05T13:06:12.607Z,5.40
2022-11-05T13:07:12.887Z,3.90
2022-11-05T13:08:13.224Z,3.60
2022-11-05T13:09:13.430Z,3.30
2022-11-05T13:10:13.714Z,2.70
2022-11-05T13:11:13.974Z,2.90
2022-11-05T13:12:14.241Z,8.30
2022-11-05T13:13:14.648Z,11.30
2022-11-05T13:14:14.795Z,15.80
2022-11-05T13:15:15.123Z,19.00
2022-11-05T13:16:15.334Z,12.90